Time;durP1;ratioP1;P1;durP2;ratioP2;P2;SDS_P1;SDS_P2;PMS_P1;PMS_P2;Temp;Humidity;BMP_temperature;BMP_pressure;BME280_temperature;BME280_humidity;BME280_pressure;Samples;Min_cycle;Max_cycle;Signal;HPM_P1;HPM_P2
2022/01/21 00:00:31;;;;;;;17.33;11.13;;;3.00;99.90;;;;;;4955597;29;20529;-72
2022/01/21 00:02:57;;;;;;;20.60;8.88;;;2.90;99.90;;;;;;4954806;29;20375;-72
2022/01/21 00:05:23;;;;;;;15.45;7.40;;;2.90;99.90;;;;;;4955682;29;20046;-71
2022/01/21 00:07:50;;;;;;;13.85;6.88;;;2.90;99.90;;;;;;4955990;29;20410;-72
2022/01/21 00:10:16;;;;;;;16.60;8.05;;;2.90;99.90;;;;;;4938049;29;20023;-71
2022/01/21 00:12:43;;;;;;;15.15;8.25;;;2.90;99.90;;;;;;4954981;29;20533;-72
2022/01/21 00:15:12;;;;;;;18.67;8.05;;;2.90;99.90;;;;;;4955468;29;20035;-72
2022/01/21 00:17:39;;;;;;;22.45;9.07;;;2.90;99.90;;;;;;4955246;29;20031;-74
2022/01/21 00:31:05;;;;;;;22.08;12.45;;;2.80;99.90;;;;;;4955350;29;20687;-70
2022/01/21 00:33:31;;;;;;;22.60;13.13;;;2.80;99.90;;;;;;4955152;29;20034;-71
2022/01/21 00:35:59;;;;;;;30.52;14.68;;;2.70;99.90;;;;;;4954154;29;20031;-70
2022/01/21 00:38:27;;;;;;;26.08;14.65;;;2.70;99.90;;;;;;4955062;29;20530;-73
2022/01/21 00:40:57;;;;;;;27.27;13.63;;;2.60;99.90;;;;;;4954850;29;20082;-72
2022/01/21 00:43:31;;;;;;;21.38;11.85;;;2.60;99.90;;;;;;4955065;29;20034;-71
2022/01/21 00:46:02;;;;;;;19.38;10.50;;;2.60;99.90;;;;;;4955131;29;20027;-71
2022/01/21 00:48:28;;;;;;;19.77;10.10;;;2.60;99.90;;;;;;4955019;29;20023;-71
2022/01/21 00:50:54;;;;;;;17.42;9.10;;;2.60;99.90;;;;;;4955051;29;20031;-72
2022/01/21 00:53:21;;;;;;;13.20;7.18;;;2.60;99.90;;;;;;4954999;29;20039;-72
2022/01/21 00:55:47;;;;;;;15.38;7.55;;;2.50;99.90;;;;;;4954482;29;20027;-72
2022/01/21 00:58:13;;;;;;;11.10;5.43;;;2.50;99.90;;;;;;4954242;29;20047;-71
2022/01/21 01:00:39;;;;;;;13.63;6.25;;;2.50;99.90;;;;;;4953307;29;20035;-71
2022/01/21 01:03:05;;;;;;;14.63;7.57;;;2.60;99.90;;;;;;4954871;29;20054;-72
2022/01/21 01:05:31;;;;;;;15.40;7.70;;;2.60;99.90;;;;;;4954868;29;20478;-72
2022/01/21 01:07:59;;;;;;;14.13;8.10;;;2.40;99.90;;;;;;4953487;29;20035;-71
2022/01/21 01:21:23;;;;;;;14.70;7.10;;;2.30;99.90;;;;;;4913386;29;20620;-71
2022/01/21 01:29:23;;;;;;;13.82;6.88;;;2.30;99.90;;;;;;4876325;29;20076;-71
2022/01/21 01:31:51;;;;;;;15.45;7.30;;;2.20;99.90;;;;;;4860643;29;20041;-70
2022/01/21 01:34:18;;;;;;;17.20;8.57;;;2.20;99.90;;;;;;4878303;29;20978;-72
2022/01/21 01:36:46;;;;;;;14.32;8.38;;;2.20;99.90;;;;;;4894916;29;20428;-71
2022/01/21 01:42:52;;;;;;;16.38;9.45;;;2.20;99.90;;;;;;4894739;29;20511;-71
2022/01/21 01:49:59;;;;;;;17.00;8.75;;;2.20;99.90;;;;;;4894802;29;20084;-72
2022/01/21 01:52:25;;;;;;;16.13;8.98;;;2.10;99.90;;;;;;4899931;29;20044;-72
2022/01/21 01:54:54;;;;;;;16.30;7.60;;;2.10;99.90;;;;;;4910602;29;20036;-71
2022/01/21 01:57:21;;;;;;;15.60;8.25;;;2.10;99.90;;;;;;4896242;29;20048;-73
2022/01/21 01:59:47;;;;;;;16.92;8.25;;;2.10;99.90;;;;;;4913578;29;20040;-72
2022/01/21 02:02:15;;;;;;;15.20;8.82;;;2.00;99.90;;;;;;4918521;29;20495;-72
2022/01/21 02:04:43;;;;;;;15.68;7.85;;;2.00;99.90;;;;;;4952287;29;20071;-73
2022/01/21 02:07:10;;;;;;;19.38;8.95;;;2.00;99.90;;;;;;4953955;29;20110;-74
2022/01/21 02:09:37;;;;;;;19.55;9.10;;;2.10;99.90;;;;;;4952627;29;20032;-72
2022/01/21 02:12:05;;;;;;;15.48;8.13;;;2.00;99.90;;;;;;4936890;29;20043;-72
2022/01/21 02:14:35;;;;;;;15.95;8.52;;;2.00;99.90;;;;;;4952337;29;20134;-72
2022/01/21 02:22:22;;;;;;;15.38;9.35;;;2.00;99.90;;;;;;4953930;29;20031;-72
2022/01/21 02:24:53;;;;;;;19.77;11.07;;;2.00;99.90;;;;;;4936706;29;20027;-70
2022/01/21 02:27:20;;;;;;;20.08;10.25;;;2.00;99.90;;;;;;4952641;29;20233;-72
2022/01/21 02:29:49;;;;;;;18.77;10.77;;;2.00;99.90;;;;;;4952361;29;20055;-72
2022/01/21 02:32:18;;;;;;;19.23;10.32;;;2.00;99.90;;;;;;4953598;28;20035;-72
2022/01/21 02:34:46;;;;;;;18.10;9.55;;;2.00;99.90;;;;;;4957627;29;20027;-72
2022/01/21 02:37:15;;;;;;;15.90;8.43;;;2.00;99.90;;;;;;4957501;29;20019;-71
2022/01/21 02:39:41;;;;;;;18.08;9.68;;;2.00;99.90;;;;;;4956148;28;20086;-72
2022/01/21 02:42:08;;;;;;;16.17;9.27;;;2.00;99.90;;;;;;4940080;29;20030;-72
2022/01/21 02:44:34;;;;;;;15.13;9.45;;;2.00;99.90;;;;;;4955243;29;20078;-71
2022/01/21 02:47:02;;;;;;;17.65;9.15;;;2.00;99.90;;;;;;4939900;29;20521;-71
2022/01/21 02:49:36;;;;;;;17.23;9.27;;;1.90;99.90;;;;;;4955945;29;20390;-71
2022/01/21 02:52:06;;;;;;;17.33;8.73;;;2.00;99.90;;;;;;4955835;29;20166;-71
2022/01/21 02:54:34;;;;;;;15.60;9.10;;;1.90;99.90;;;;;;4957117;29;20087;-70
2022/01/21 02:57:04;;;;;;;19.25;9.50;;;2.00;99.90;;;;;;4955727;29;20055;-71
2022/01/21 02:59:30;;;;;;;17.55;8.75;;;1.90;99.90;;;;;;4956397;29;20490;-73
2022/01/21 03:01:57;;;;;;;16.60;8.52;;;1.90;99.90;;;;;;4955829;29;20046;-72
2022/01/21 03:04:36;;;;;;;14.63;7.22;;;1.90;99.90;;;;;;4957094;29;20051;-72
2022/01/21 03:07:02;;;;;;;13.52;7.22;;;1.90;99.90;;;;;;4955564;29;20031;-72
2022/01/21 03:09:29;;;;;;;13.63;6.85;;;1.90;99.90;;;;;;4955333;29;20027;-73
2022/01/21 03:11:55;;;;;;;12.05;6.53;;;1.90;99.90;;;;;;4956373;29;20110;-69
2022/01/21 03:14:22;;;;;;;14.70;7.65;;;1.90;99.90;;;;;;4938692;29;20525;-72
2022/01/21 03:16:48;;;;;;;14.48;8.35;;;1.80;99.90;;;;;;4956283;29;20059;-71
2022/01/21 03:19:14;;;;;;;15.13;7.53;;;1.90;99.90;;;;;;4954713;29;20047;-72
2022/01/21 03:21:40;;;;;;;17.20;7.85;;;1.80;99.90;;;;;;4955088;29;20121;-73
2022/01/21 03:24:06;;;;;;;16.42;8.00;;;1.80;99.90;;;;;;4954801;29;20151;-72
2022/01/21 03:26:33;;;;;;;18.25;8.50;;;1.80;99.90;;;;;;4954636;29;20363;-71
2022/01/21 03:29:02;;;;;;;15.00;8.20;;;1.80;99.90;;;;;;4954429;29;20533;-73
2022/01/21 03:31:35;;;;;;;15.85;7.68;;;1.80;99.90;;;;;;4954314;29;20472;-71
2022/01/21 03:34:03;;;;;;;13.88;7.18;;;1.80;99.90;;;;;;4938355;29;20394;-71
2022/01/21 03:36:33;;;;;;;12.95;6.90;;;1.80;99.90;;;;;;4954563;29;20118;-72
2022/01/21 03:38:59;;;;;;;14.70;7.85;;;1.90;99.90;;;;;;4938452;29;20393;-72
2022/01/21 03:41:26;;;;;;;13.20;6.45;;;1.80;99.90;;;;;;4954461;29;20049;-71
2022/01/21 03:43:52;;;;;;;12.52;6.97;;;1.80;99.90;;;;;;4953490;28;20031;-71
2022/01/21 03:46:19;;;;;;;13.15;7.38;;;1.80;99.90;;;;;;4954231;29;20035;-69
2022/01/21 03:48:48;;;;;;;14.18;7.03;;;1.90;99.90;;;;;;4954141;29;20548;-71
2022/01/21 03:51:18;;;;;;;13.57;6.60;;;1.80;99.90;;;;;;4954148;29;20087;-71
2022/01/21 03:53:46;;;;;;;14.52;6.68;;;1.80;99.90;;;;;;4954036;28;20023;-70
2022/01/21 03:56:14;;;;;;;16.20;7.85;;;1.90;99.90;;;;;;4955445;29;20031;-69
2022/01/21 03:58:40;;;;;;;13.30;6.07;;;1.90;99.90;;;;;;4954024;29;20051;-71
2022/01/21 04:01:07;;;;;;;12.82;5.05;;;1.90;99.90;;;;;;4953745;29;20398;-70
2022/01/21 04:03:35;;;;;;;16.85;5.15;;;1.90;99.90;;;;;;4953772;29;20030;-73
2022/01/21 04:06:01;;;;;;;11.20;5.50;;;1.80;99.90;;;;;;4938154;29;20027;-72
2022/01/21 04:08:27;;;;;;;10.95;5.28;;;1.90;99.90;;;;;;4954954;29;20082;-71
2022/01/21 04:10:57;;;;;;;11.88;5.30;;;1.90;99.90;;;;;;4953652;29;20439;-73
2022/01/21 04:13:25;;;;;;;9.07;4.90;;;1.90;99.90;;;;;;4953066;29;20043;-72
2022/01/21 04:15:59;;;;;;;12.73;6.30;;;1.90;99.90;;;;;;4937531;29;20134;-73
2022/01/21 04:18:26;;;;;;;11.70;5.88;;;1.90;99.90;;;;;;4953625;29;20055;-72
2022/01/21 04:20:55;;;;;;;10.45;6.10;;;1.80;99.90;;;;;;4953313;29;20036;-72
2022/01/21 04:23:23;;;;;;;10.80;5.85;;;1.80;99.90;;;;;;4953805;29;20027;-72
2022/01/21 04:25:50;;;;;;;12.55;5.57;;;1.80;99.90;;;;;;4953262;29;20027;-72
2022/01/21 04:28:16;;;;;;;11.48;4.82;;;1.80;99.90;;;;;;4937874;29;20471;-72
2022/01/21 04:30:44;;;;;;;9.60;4.75;;;1.80;99.90;;;;;;4953196;29;20034;-72
2022/01/21 04:33:11;;;;;;;10.82;4.60;;;1.90;99.90;;;;;;4953551;29;20027;-72
2022/01/21 04:35:38;;;;;;;8.45;4.93;;;1.90;99.90;;;;;;4937606;29;20035;-72
2022/01/21 04:38:08;;;;;;;12.65;6.10;;;1.80;99.90;;;;;;4953016;29;20449;-72
2022/01/21 04:40:40;;;;;;;16.75;7.93;;;1.80;99.90;;;;;;4953107;29;20046;-72
2022/01/21 04:48:38;;;;;;;12.55;5.72;;;1.90;99.90;;;;;;4952797;29;20033;-72
2022/01/21 04:51:21;;;;;;;12.50;6.05;;;1.90;99.90;;;;;;4952694;29;20030;-72
2022/01/21 04:53:48;;;;;;;9.88;4.93;;;2.00;99.90;;;;;;4953184;29;20035;-71
2022/01/21 04:56:22;;;;;;;8.75;4.80;;;1.90;99.90;;;;;;4951703;28;20031;-71
2022/01/21 04:58:49;;;;;;;10.68;5.63;;;1.80;99.90;;;;;;4952828;29;20066;-72
2022/01/21 05:01:15;;;;;;;15.07;7.68;;;1.80;99.90;;;;;;4953843;29;20047;-70
2022/01/21 05:03:45;;;;;;;12.98;6.55;;;1.80;99.90;;;;;;4952698;29;20482;-72
2022/01/21 05:06:11;;;;;;;15.55;7.72;;;1.80;99.90;;;;;;4952484;29;20478;-72
2022/01/21 05:08:55;;;;;;;19.02;10.43;;;1.90;99.90;;;;;;4952839;29;20434;-71
2022/01/21 05:11:22;;;;;;;26.75;14.32;;;1.90;99.90;;;;;;4952255;29;20031;-72
2022/01/21 05:13:56;;;;;;;26.52;15.30;;;1.90;99.90;;;;;;4936233;29;20028;-70
2022/01/21 05:16:35;;;;;;;27.13;14.93;;;1.80;99.90;;;;;;4953549;29;20039;-72
2022/01/21 05:19:08;;;;;;;24.27;12.70;;;1.90;99.90;;;;;;4952594;29;20389;-70
2022/01/21 05:21:54;;;;;;;22.80;9.93;;;1.80;99.90;;;;;;4952970;29;20074;-70
2022/01/21 05:24:24;;;;;;;15.32;7.30;;;1.90;99.90;;;;;;4951501;29;20127;-71
2022/01/21 05:26:57;;;;;;;19.00;8.95;;;1.90;99.90;;;;;;4936521;29;20139;-71
2022/01/21 05:29:31;;;;;;;19.13;8.40;;;1.80;99.90;;;;;;4936570;29;20084;-72
2022/01/21 05:32:02;;;;;;;15.10;8.75;;;1.90;99.90;;;;;;4952406;29;20045;-70
2022/01/21 05:34:39;;;;;;;18.75;9.52;;;1.90;99.90;;;;;;4954010;29;20057;-73
2022/01/21 05:37:18;;;;;;;19.92;10.57;;;1.90;99.90;;;;;;4951911;29;20034;-69
2022/01/21 05:40:03;;;;;;;19.95;10.60;;;1.90;99.90;;;;;;4952195;29;20407;-69
2022/01/21 05:42:49;;;;;;;20.52;10.32;;;1.90;99.90;;;;;;4952621;29;20482;-69
2022/01/21 05:48:39;;;;;;;15.52;8.80;;;2.00;99.90;;;;;;4952277;29;20038;-71
2022/01/21 05:51:23;;;;;;;15.88;8.23;;;1.90;99.90;;;;;;4951064;29;20117;-71
2022/01/21 05:54:09;;;;;;;13.40;7.53;;;1.90;99.90;;;;;;4942588;29;20395;-72
2022/01/21 05:56:54;;;;;;;17.20;7.63;;;1.90;99.90;;;;;;4934786;29;20050;-70
2022/01/21 05:59:33;;;;;;;18.63;9.13;;;2.00;99.90;;;;;;4934209;29;20071;-69
2022/01/21 06:02:02;;;;;;;16.45;9.10;;;2.00;99.90;;;;;;4932972;29;20043;-70
2022/01/21 06:04:31;;;;;;;20.45;9.45;;;2.00;99.90;;;;;;4917760;29;20039;-71
2022/01/21 06:07:00;;;;;;;17.75;9.00;;;1.90;99.90;;;;;;4944947;29;20044;-71
2022/01/21 06:09:28;;;;;;;16.85;9.02;;;1.90;99.90;;;;;;4924205;29;20043;-70
2022/01/21 06:11:54;;;;;;;21.58;10.52;;;1.90;99.90;;;;;;4936856;29;20035;-70
2022/01/21 06:14:20;;;;;;;20.55;10.82;;;1.90;99.90;;;;;;4943643;29;20034;-70
2022/01/21 06:16:47;;;;;;;21.00;9.73;;;1.90;99.90;;;;;;4941865;29;20058;-70
2022/01/21 06:19:13;;;;;;;19.45;8.88;;;1.90;99.90;;;;;;4937265;29;20079;-70
2022/01/21 06:21:39;;;;;;;19.45;10.15;;;1.80;99.90;;;;;;4938114;29;20115;-70
2022/01/21 06:24:05;;;;;;;23.17;11.60;;;1.90;99.90;;;;;;4937750;29;20108;-70
2022/01/21 06:26:32;;;;;;;17.27;9.13;;;1.90;99.90;;;;;;4938130;29;20031;-69
2022/01/21 06:29:00;;;;;;;17.70;8.52;;;1.90;99.90;;;;;;4936710;29;20032;-70
2022/01/21 06:31:26;;;;;;;15.93;7.10;;;1.90;99.90;;;;;;4937999;29;20474;-70
2022/01/21 06:33:52;;;;;;;19.77;9.43;;;1.90;99.90;;;;;;4937631;29;20097;-70
2022/01/21 06:36:18;;;;;;;23.02;10.55;;;2.00;99.90;;;;;;4937761;29;20114;-70
2022/01/21 06:38:44;;;;;;;16.80;8.77;;;2.00;99.90;;;;;;4937746;29;20106;-70
2022/01/21 06:41:09;;;;;;;18.08;9.43;;;2.00;99.90;;;;;;4937792;29;20035;-70
2022/01/21 06:43:35;;;;;;;26.52;13.73;;;2.00;99.90;;;;;;4952094;29;20042;-70
2022/01/21 06:46:02;;;;;;;32.22;16.60;;;2.00;99.90;;;;;;4956576;29;20065;-70
2022/01/21 06:48:28;;;;;;;34.80;17.92;;;2.00;99.90;;;;;;4939466;29;20384;-70
2022/01/21 06:50:58;;;;;;;26.48;15.25;;;2.00;99.90;;;;;;4965587;29;20446;-70
2022/01/21 06:53:25;;;;;;;34.55;16.00;;;2.10;99.90;;;;;;4958202;29;20037;-70
2022/01/21 06:55:51;;;;;;;28.70;17.60;;;2.10;99.90;;;;;;4956496;29;20159;-70
2022/01/21 06:58:18;;;;;;;27.50;13.93;;;2.20;99.90;;;;;;4966338;29;20059;-70
2022/01/21 07:00:46;;;;;;;21.50;11.75;;;2.20;99.90;;;;;;4960001;29;20540;-70
2022/01/21 07:03:12;;;;;;;20.88;12.48;;;2.20;99.90;;;;;;4953011;29;20111;-70
2022/01/21 07:05:38;;;;;;;15.77;8.35;;;2.20;99.90;;;;;;4961547;29;20061;-71
2022/01/21 07:08:04;;;;;;;20.35;10.10;;;2.20;99.90;;;;;;4955958;29;20023;-70
2022/01/21 07:10:30;;;;;;;22.20;12.80;;;2.20;99.90;;;;;;4956318;29;20082;-70
2022/01/21 07:12:58;;;;;;;19.08;10.93;;;2.20;99.90;;;;;;4956220;29;20028;-70
2022/01/21 07:15:24;;;;;;;19.85;10.32;;;2.20;99.90;;;;;;4956066;29;20039;-70
2022/01/21 07:17:52;;;;;;;22.20;10.48;;;2.20;99.90;;;;;;4955841;29;20027;-70
2022/01/21 07:20:20;;;;;;;20.25;10.25;;;2.10;99.90;;;;;;4953465;28;20031;-72
2022/01/21 07:22:46;;;;;;;27.20;13.70;;;2.00;99.90;;;;;;4959073;29;20525;-71
2022/01/21 07:25:14;;;;;;;28.38;16.92;;;2.00;99.90;;;;;;4940306;29;20082;-71
2022/01/21 07:27:41;;;;;;;33.38;19.98;;;2.00;99.90;;;;;;4955970;29;20616;-72
2022/01/21 07:30:08;;;;;;;25.48;13.13;;;2.00;99.90;;;;;;4955650;29;20023;-71
2022/01/21 07:32:34;;;;;;;23.38;14.20;;;2.10;99.90;;;;;;4955783;29;20031;-69
2022/01/21 07:35:00;;;;;;;35.63;19.40;;;2.00;99.90;;;;;;4956155;29;20039;-69
2022/01/21 07:37:26;;;;;;;22.95;12.70;;;2.10;99.90;;;;;;4955492;29;20019;-71
2022/01/21 07:39:52;;;;;;;23.50;10.75;;;2.10;99.90;;;;;;4953878;29;20042;-71
2022/01/21 07:42:18;;;;;;;23.75;11.85;;;2.10;99.90;;;;;;4964939;29;20031;-72
2022/01/21 07:44:45;;;;;;;19.70;11.93;;;2.10;99.90;;;;;;4959503;29;20027;-72
2022/01/21 07:47:11;;;;;;;21.52;11.63;;;2.20;99.90;;;;;;4956063;29;20031;-71
2022/01/21 07:49:36;;;;;;;26.63;13.05;;;2.20;99.90;;;;;;4955959;29;20540;-71
2022/01/21 07:52:02;;;;;;;22.27;12.02;;;2.20;99.90;;;;;;4955270;29;20469;-71
2022/01/21 07:54:29;;;;;;;23.83;11.80;;;2.20;99.90;;;;;;4955363;29;20549;-71
2022/01/21 07:56:56;;;;;;;25.77;11.55;;;2.20;99.90;;;;;;4938445;29;20456;-72
2022/01/21 07:59:23;;;;;;;20.73;10.27;;;2.20;99.90;;;;;;4966513;29;20040;-72
2022/01/21 08:01:50;;;;;;;19.55;10.73;;;2.20;99.90;;;;;;4964201;29;20536;-71
2022/01/21 08:04:16;;;;;;;21.85;10.95;;;2.20;99.90;;;;;;4954216;29;20744;-71
2022/01/21 08:06:42;;;;;;;22.10;9.80;;;2.20;99.90;;;;;;4955675;29;20039;-71
2022/01/21 08:09:08;;;;;;;23.40;10.95;;;2.20;99.90;;;;;;4954674;29;20031;-71
2022/01/21 08:11:34;;;;;;;19.83;9.65;;;2.30;99.90;;;;;;4954246;29;20413;-71
2022/01/21 08:14:00;;;;;;;20.10;9.07;;;2.30;99.90;;;;;;4954484;29;20031;-70
2022/01/21 08:16:26;;;;;;;18.80;8.77;;;2.30;99.90;;;;;;4962438;29;20029;-71
2022/01/21 08:18:54;;;;;;;19.75;8.95;;;2.30;99.90;;;;;;4938449;29;20106;-71
2022/01/21 08:21:21;;;;;;;21.92;8.90;;;2.40;99.90;;;;;;4953450;29;20035;-72
2022/01/21 08:23:50;;;;;;;22.88;10.20;;;2.40;99.90;;;;;;4953539;29;20066;-71
2022/01/21 08:26:21;;;;;;;21.02;9.57;;;2.40;99.90;;;;;;4954807;29;20027;-71
2022/01/21 08:28:48;;;;;;;16.92;8.68;;;2.40;99.90;;;;;;4954519;29;20083;-71
2022/01/21 08:31:14;;;;;;;18.67;9.23;;;2.40;99.90;;;;;;4954623;28;20092;-72
2022/01/21 08:33:40;;;;;;;18.20;7.95;;;2.40;99.90;;;;;;4954545;29;20102;-71
2022/01/21 08:36:10;;;;;;;16.25;8.13;;;2.30;99.90;;;;;;4954680;29;20023;-71
2022/01/21 08:38:36;;;;;;;15.40;7.78;;;2.40;99.90;;;;;;4954531;29;20249;-71
2022/01/21 08:41:03;;;;;;;18.27;9.07;;;2.40;99.90;;;;;;4964623;29;20058;-72
2022/01/21 08:43:30;;;;;;;18.70;9.70;;;2.40;99.90;;;;;;4956857;29;20081;-71
2022/01/21 08:45:59;;;;;;;21.27;9.55;;;2.50;99.90;;;;;;4963188;29;20659;-72
2022/01/21 08:48:26;;;;;;;18.13;10.18;;;2.50;99.90;;;;;;4957993;29;20493;-72
2022/01/21 08:50:52;;;;;;;20.90;9.00;;;2.50;99.90;;;;;;4953706;29;20038;-71
2022/01/21 08:53:36;;;;;;;18.85;9.63;;;2.40;99.90;;;;;;4954669;29;20015;-71
2022/01/21 08:56:15;;;;;;;18.13;9.25;;;2.40;99.90;;;;;;4954198;29;20481;-71
2022/01/21 08:58:43;;;;;;;20.00;11.02;;;2.50;99.90;;;;;;4953621;29;20054;-71
2022/01/21 09:01:09;;;;;;;20.10;9.05;;;2.50;99.90;;;;;;4953943;29;20047;-71
2022/01/21 09:03:38;;;;;;;18.40;9.00;;;2.50;99.90;;;;;;4954068;29;20093;-72
2022/01/21 09:06:04;;;;;;;14.48;6.97;;;2.50;99.90;;;;;;4936784;29;20393;-71
2022/01/21 09:08:31;;;;;;;6.70;3.55;;;2.40;99.90;;;;;;4955676;29;20474;-71
2022/01/21 09:11:00;;;;;;;11.82;5.07;;;2.40;99.90;;;;;;4954191;29;20035;-71
2022/01/21 09:13:29;;;;;;;9.00;4.88;;;2.40;99.90;;;;;;4954066;29;20556;-71
2022/01/21 09:15:59;;;;;;;12.98;5.63;;;2.40;99.90;;;;;;4954420;29;20488;-71
2022/01/21 09:18:47;;;;;;;13.65;4.63;;;2.50;99.90;;;;;;4959523;29;20031;-71
2022/01/21 09:21:15;;;;;;;22.55;7.95;;;2.50;99.90;;;;;;4935841;29;20035;-71
2022/01/21 09:23:43;;;;;;;17.63;6.97;;;2.50;99.90;;;;;;4962939;29;20115;-71
2022/01/21 09:26:13;;;;;;;11.32;3.80;;;2.50;99.90;;;;;;4957455;29;20059;-71
2022/01/21 09:28:39;;;;;;;6.70;3.20;;;2.60;99.90;;;;;;4953006;29;20054;-71
2022/01/21 09:31:04;;;;;;;8.80;3.92;;;2.70;99.90;;;;;;4955233;29;20470;-71
2022/01/21 09:33:31;;;;;;;19.08;5.32;;;2.70;99.90;;;;;;4953655;29;20034;-71
2022/01/21 09:35:57;;;;;;;6.40;2.67;;;2.70;99.90;;;;;;4953455;29;20023;-71
2022/01/21 09:38:24;;;;;;;5.97;2.53;;;2.60;99.90;;;;;;4953509;29;20034;-71
2022/01/21 09:40:52;;;;;;;7.65;3.10;;;2.60;99.90;;;;;;4953406;29;20039;-71
2022/01/21 09:43:19;;;;;;;9.07;2.97;;;2.60;99.50;;;;;;4960689;29;20024;-71
2022/01/21 09:45:52;;;;;;;8.55;3.08;;;2.60;99.90;;;;;;4952651;29;20032;-70
2022/01/21 09:48:27;;;;;;;5.47;2.67;;;2.60;99.20;;;;;;4953383;29;20077;-71
2022/01/21 09:50:57;;;;;;;12.77;4.82;;;2.60;99.90;;;;;;4953505;29;20325;-72
2022/01/21 09:53:32;;;;;;;9.27;3.10;;;2.60;99.90;;;;;;4953145;29;20027;-71
2022/01/21 09:56:04;;;;;;;11.23;2.80;;;2.70;99.90;;;;;;4953382;29;20122;-70
2022/01/21 09:58:31;;;;;;;7.05;3.47;;;2.60;99.80;;;;;;4952962;29;20048;-70
2022/01/21 10:01:00;;;;;;;7.72;3.38;;;2.50;99.90;;;;;;4953650;29;20126;-70
2022/01/21 10:03:27;;;;;;;7.78;3.10;;;2.50;99.90;;;;;;4953459;29;20055;-71
2022/01/21 10:05:54;;;;;;;6.18;2.58;;;2.50;99.90;;;;;;4935862;29;20027;-72
2022/01/21 10:08:23;;;;;;;8.10;3.83;;;2.50;99.90;;;;;;4953293;29;20032;-70
2022/01/21 10:10:49;;;;;;;11.07;3.95;;;2.60;99.90;;;;;;4953464;29;20027;-71
2022/01/21 10:13:17;;;;;;;9.38;3.97;;;2.50;99.90;;;;;;4953204;29;20534;-72
2022/01/21 10:15:44;;;;;;;16.58;6.10;;;2.60;99.90;;;;;;4952949;29;20027;-70
2022/01/21 10:18:22;;;;;;;12.40;2.83;;;2.70;99.90;;;;;;4953279;29;20143;-71
2022/01/21 10:21:11;;;;;;;8.90;3.17;;;2.70;99.90;;;;;;4935243;29;20047;-71
2022/01/21 10:23:40;;;;;;;9.30;3.47;;;2.60;99.90;;;;;;4953829;29;20110;-70
2022/01/21 10:26:19;;;;;;;16.02;5.40;;;2.50;99.90;;;;;;4953247;29;20426;-71
2022/01/21 10:28:55;;;;;;;20.58;9.10;;;2.40;99.90;;;;;;4953841;29;20020;-71
2022/01/21 10:31:21;;;;;;;16.27;7.65;;;2.50;99.90;;;;;;4952918;29;20099;-71
2022/01/21 10:33:52;;;;;;;9.23;3.03;;;2.50;99.90;;;;;;4953087;29;20024;-70
2022/01/21 10:36:27;;;;;;;16.83;6.97;;;2.40;99.90;;;;;;4953421;29;20439;-71
2022/01/21 10:39:07;;;;;;;13.73;5.72;;;2.30;99.90;;;;;;4952612;29;20110;-71
2022/01/21 10:41:35;;;;;;;29.92;11.80;;;2.30;99.90;;;;;;4953573;29;20300;-71
2022/01/21 10:44:07;;;;;;;12.70;5.90;;;2.40;99.90;;;;;;4935965;29;20038;-71
2022/01/21 10:46:34;;;;;;;11.77;3.60;;;2.30;99.90;;;;;;4957984;29;20034;-72
2022/01/21 10:49:03;;;;;;;5.93;2.72;;;2.40;99.90;;;;;;4956120;29;20377;-71
2022/01/21 10:51:35;;;;;;;7.30;3.38;;;2.30;99.60;;;;;;4951337;29;20075;-71
2022/01/21 10:54:26;;;;;;;8.85;4.10;;;2.30;97.80;;;;;;4944476;28;20027;-71
2022/01/21 10:57:12;;;;;;;7.85;3.13;;;2.30;98.90;;;;;;4954799;29;20043;-70
2022/01/21 10:59:47;;;;;;;6.93;3.13;;;2.30;97.50;;;;;;4955135;29;20039;-71
2022/01/21 11:02:14;;;;;;;7.13;2.90;;;2.40;96.30;;;;;;4955649;29;20530;-71
2022/01/21 11:04:44;;;;;;;5.57;3.05;;;2.60;94.40;;;;;;4955988;29;20030;-71
2022/01/21 11:07:15;;;;;;;7.75;3.90;;;2.80;94.50;;;;;;4962564;29;20054;-71
2022/01/21 11:09:41;;;;;;;7.85;3.65;;;3.00;96.40;;;;;;4939497;29;20027;-71
2022/01/21 11:12:12;;;;;;;6.53;2.67;;;3.10;94.30;;;;;;4956111;29;20090;-72
2022/01/21 11:14:58;;;;;;;6.38;3.38;;;3.00;93.80;;;;;;4955920;29;20031;-72
2022/01/21 11:17:25;;;;;;;7.22;3.17;;;3.10;96.50;;;;;;4955873;29;20034;-71
2022/01/21 11:20:23;;;;;;;11.57;4.40;;;3.20;94.20;;;;;;4955467;29;20031;-72
2022/01/21 11:22:57;;;;;;;10.60;4.80;;;3.10;93.90;;;;;;4896815;29;20539;-69
2022/01/21 11:25:47;;;;;;;6.22;2.25;;;3.00;93.20;;;;;;4896583;29;20029;-69
2022/01/21 11:28:25;;;;;;;8.52;3.58;;;3.10;94.20;;;;;;4896575;29;20037;-72
2022/01/21 11:30:52;;;;;;;12.85;3.50;;;3.20;94.70;;;;;;4895681;29;20119;-70
2022/01/21 11:33:19;;;;;;;13.48;4.63;;;3.00;93.60;;;;;;4896001;29;20064;-72
2022/01/21 11:35:48;;;;;;;9.57;3.05;;;3.00;93.00;;;;;;4896007;29;20191;-69
2022/01/21 11:38:18;;;;;;;7.10;2.38;;;3.20;93.50;;;;;;4895901;29;20035;-70
2022/01/21 11:40:44;;;;;;;4.40;2.03;;;3.30;94.30;;;;;;4894986;29;20049;-69
2022/01/21 11:43:12;;;;;;;7.20;3.97;;;3.00;91.40;;;;;;4903360;29;20037;-71
2022/01/21 11:46:06;;;;;;;8.98;2.97;;;3.10;92.30;;;;;;4881079;29;20044;-70
2022/01/21 11:48:53;;;;;;;6.78;3.30;;;3.10;88.10;;;;;;4902728;29;20673;-72
2022/01/21 11:51:22;;;;;;;6.75;3.08;;;3.20;87.90;;;;;;4888152;29;20040;-70
2022/01/21 11:54:01;;;;;;;10.80;3.88;;;3.30;90.10;;;;;;4897549;29;20037;-70
2022/01/21 11:56:56;;;;;;;6.35;2.33;;;3.40;89.70;;;;;;4897735;29;20172;-70
2022/01/21 12:02:30;;;;;;;15.68;4.45;;;3.30;85.70;;;;;;4959223;29;20496;-70
2022/01/21 12:05:07;;;;;;;8.90;2.75;;;3.30;83.90;;;;;;4954696;28;20532;-72
2022/01/21 12:07:40;;;;;;;6.13;2.35;;;3.40;88.10;;;;;;4962252;29;20023;-72
2022/01/21 12:10:06;;;;;;;6.32;2.42;;;3.50;90.30;;;;;;4954673;28;20031;-72
2022/01/21 12:12:53;;;;;;;8.90;3.00;;;3.60;88.10;;;;;;4954843;29;20116;-71
2022/01/21 12:15:38;;;;;;;5.72;2.50;;;3.50;84.90;;;;;;4954953;29;20031;-72
2022/01/21 12:20:58;;;;;;;9.75;3.03;;;3.40;81.50;;;;;;4963237;29;20568;-70
2022/01/21 12:23:30;;;;;;;12.32;3.17;;;3.20;84.50;;;;;;4945870;29;20054;-70
2022/01/21 12:26:38;;;;;;;16.03;6.13;;;2.80;86.90;;;;;;4962054;29;20034;-73
2022/01/21 12:29:05;;;;;;;9.63;3.83;;;2.70;89.60;;;;;;4902817;29;20043;-73
2022/01/21 12:31:41;;;;;;;13.45;4.93;;;2.60;87.70;;;;;;4899579;29;20034;-73
2022/01/21 12:34:27;;;;;;;23.92;6.50;;;2.60;87.20;;;;;;4895341;29;20088;-72
2022/01/21 12:36:58;;;;;;;10.35;3.08;;;2.90;89.70;;;;;;4894987;29;20057;-72
2022/01/21 12:39:45;;;;;;;7.82;2.55;;;2.90;87.40;;;;;;4895111;29;20048;-71
2022/01/21 12:42:24;;;;;;;7.43;2.30;;;2.90;85.20;;;;;;4895274;29;20045;-72
2022/01/21 12:44:53;;;;;;;9.20;2.80;;;2.90;82.00;;;;;;4895126;29;20044;-72
2022/01/21 12:47:41;;;;;;;15.85;5.38;;;3.00;82.20;;;;;;4894519;29;20051;-72
2022/01/21 12:50:16;;;;;;;7.05;3.08;;;3.10;83.40;;;;;;4895196;29;20115;-72
2022/01/21 12:58:22;;;;;;;16.42;6.13;;;2.90;81.80;;;;;;4894346;29;20107;-69
2022/01/21 13:00:55;;;;;;;9.43;2.40;;;2.80;81.90;;;;;;4902656;29;20089;-70
2022/01/21 13:03:29;;;;;;;13.77;4.45;;;2.60;78.90;;;;;;4903025;29;20036;-69
2022/01/21 13:06:24;;;;;;;14.85;5.28;;;2.40;81.20;;;;;;4942295;29;20098;-70
2022/01/21 13:09:09;;;;;;;8.57;4.80;;;2.40;80.30;;;;;;4942795;29;20039;-72
2022/01/21 13:11:40;;;;;;;14.30;4.75;;;2.20;79.00;;;;;;4954228;29;20042;-72
2022/01/21 13:17:10;;;;;;;12.05;4.75;;;2.50;82.00;;;;;;4954415;28;20023;-69
2022/01/21 13:19:52;;;;;;;18.95;6.45;;;2.70;82.20;;;;;;4953185;29;20070;-70
2022/01/21 13:22:28;;;;;;;18.38;5.90;;;2.80;79.00;;;;;;4953956;29;20071;-70
2022/01/21 13:25:05;;;;;;;17.40;7.05;;;2.80;78.50;;;;;;4936733;29;20034;-72
2022/01/21 13:27:33;;;;;;;9.27;3.90;;;2.90;78.00;;;;;;4960587;29;20027;-72
2022/01/21 13:30:03;;;;;;;7.47;3.10;;;2.90;77.90;;;;;;4956830;29;20024;-72
2022/01/21 13:32:29;;;;;;;6.53;2.40;;;3.00;74.40;;;;;;4952748;29;20404;-71
2022/01/21 13:35:13;;;;;;;7.60;3.22;;;2.90;73.40;;;;;;4952991;29;20557;-72
2022/01/21 13:37:42;;;;;;;10.35;3.95;;;3.00;73.90;;;;;;4953158;29;20055;-71
2022/01/21 13:40:09;;;;;;;10.57;2.78;;;3.00;75.90;;;;;;4953028;29;20031;-71
2022/01/21 13:42:37;;;;;;;20.92;5.60;;;3.00;80.30;;;;;;4954274;29;20031;-72
2022/01/21 13:45:08;;;;;;;14.93;5.30;;;3.00;75.40;;;;;;4952831;29;20020;-70
2022/01/21 13:47:36;;;;;;;13.85;5.32;;;3.00;78.90;;;;;;4953252;29;20023;-72
2022/01/21 13:50:24;;;;;;;19.98;4.95;;;2.90;74.80;;;;;;4953515;29;20019;-72
2022/01/21 13:53:00;;;;;;;6.90;2.92;;;2.90;77.40;;;;;;4953165;29;20031;-72
2022/01/21 13:55:34;;;;;;;14.07;4.22;;;2.90;76.50;;;;;;4953650;29;20043;-72
2022/01/21 13:58:04;;;;;;;9.23;3.38;;;2.90;76.60;;;;;;4953655;28;20058;-72
2022/01/21 14:00:35;;;;;;;12.70;4.05;;;2.90;73.70;;;;;;4949872;29;20078;-72
2022/01/21 14:03:08;;;;;;;18.60;5.22;;;2.80;75.60;;;;;;4953271;29;20027;-73
2022/01/21 14:05:48;;;;;;;;;;;2.80;77.10;;;;;;4953470;29;20058;-72
2022/01/21 14:08:25;;;;;;;13.15;4.68;;;2.80;74.70;;;;;;4956552;29;19910;-72